Tallandoon, Australia

4:39 AM AEST on July 24, 2017 (GMT +1000)
Swaby Hill | | Change Station

Elev 1073 ft 36.25 °S, 147.13 °E | Updated 55 seconds ago

Overcast
Overcast
46.8 °F
Feels Like 47 °F
N
0.7
Wind Variable Wind from East
Gusts 2.2 mph

Today
High -- | Low -- °F
--% Chance of Precip.
Yesterday
High -- | Low -- °F
Precip. -- in
Pressure 30.06 in
Visibility 6.2 miles
Clouds Overcast 400 ft
Windchill 47 °F
Dew Point 46 °F
Humidity 96%
Rainfall 0.00 in
Snow Depth Not available.
7:15 AM 5:20 PM
New Moon, 0% visible
SPECI YWGT 231830Z AUTO 00000KT 9999 // OVC004 08/08 Q1018
Pressure 30.06 in
Visibility 6.2 miles
Clouds Overcast 400 ft
Windchill 47 °F
Dew Point 46 °F
Humidity 96%
Rainfall 0.00 in
Snow Depth Not available.
7:15 AM 5:20 PM
New Moon, 0% visible
SPECI YWGT 231830Z AUTO 00000KT 9999 // OVC004 08/08 Q1018

Get Severe Weather Alerts

Thanks for signing up!

Be on the lookout for a verification email in your inbox.

You'll start receiving the daily forecast at 6 AM.

×

10-Day Weather Forecast

×

Almanac

Astronomy

Jul. 24, 2017 Rise Set
Actual Time
Civil Twilight
Nautical Twilight
Astronomical Twilight
Moon
Length of Visible Light
Length of Day
Tomorrow will be .
, % of the Moon is Illuminated

Today's Extremes

Country Highs Country Lows

Community

WunderPhotos

Category 6

Welcome to Category 6. This is the collective home for Weather Underground's featured writeups by Dr. Jeff Masters (right), Bob Henson (left), Chris Burt, and other regular contributors.

Nearby

Air Quality

  Air Quality AQ Index Pollutant
Not available.

Snow Depth

Station Depth Elevation

Earthquake Activity

City Distance Mag. Time & Date
Minimum magnitude displayed is 2.5.

Coastal Water Temperatures

Place Temperature

Stations

Nearby Weather Stations

Station Location Temp. Windchill Dew Point Humidity Wind Precip. Elev Updated Type